Time;durP1;ratioP1;P1;durP2;ratioP2;P2;SDS_P1;SDS_P2;PMS_P1;PMS_P2;Temp;Humidity;BMP_temperature;BMP_pressure;BME280_temperature;BME280_humidity;BME280_pressure;Samples;Min_cycle;Max_cycle;Signal;HPM_P1;HPM_P2
2022/08/27 00:00:28;;;;;;;9.13;5.75;;;24.00;89.40;;;;;;6275497;22;20007;-78
2022/08/27 00:02:54;;;;;;;9.00;5.05;;;24.00;89.50;;;;;;6275778;22;19996;-79
2022/08/27 00:05:19;;;;;;;9.60;5.78;;;24.00;89.50;;;;;;6275426;22;20000;-78
2022/08/27 00:07:46;;;;;;;7.80;5.18;;;24.00;89.50;;;;;;6275456;22;20057;-78
2022/08/27 00:10:18;;;;;;;8.57;5.35;;;24.00;89.50;;;;;;6248426;22;19996;-78
2022/08/27 00:12:44;;;;;;;9.05;5.43;;;24.00;89.50;;;;;;6274787;22;20007;-78
2022/08/27 00:15:11;;;;;;;7.22;4.88;;;24.00;89.40;;;;;;6248238;22;20010;-78
2022/08/27 00:17:37;;;;;;;8.40;4.57;;;24.00;89.40;;;;;;6275076;22;19991;-79
2022/08/27 00:20:05;;;;;;;7.70;5.25;;;24.10;89.30;;;;;;6248442;22;20000;-79
2022/08/27 00:22:30;;;;;;;7.53;5.10;;;24.00;89.20;;;;;;6248226;22;20060;-78
2022/08/27 00:24:56;;;;;;;8.45;5.75;;;24.10;89.20;;;;;;6248176;22;20007;-78
2022/08/27 00:27:21;;;;;;;9.48;5.22;;;24.10;89.20;;;;;;6248539;22;20046;-79
2022/08/27 00:29:47;;;;;;;7.15;4.82;;;24.10;89.20;;;;;;6248609;22;20007;-78
2022/08/27 00:32:13;;;;;;;8.88;5.25;;;24.00;89.30;;;;;;6248192;22;20015;-78
2022/08/27 00:34:38;;;;;;;7.40;4.90;;;24.00;89.40;;;;;;6275036;22;20021;-79
2022/08/27 00:37:05;;;;;;;8.40;4.70;;;24.00;89.50;;;;;;6248460;22;20011;-78
2022/08/27 00:39:31;;;;;;;7.47;4.88;;;24.00;89.50;;;;;;6275464;22;20006;-78
2022/08/27 00:41:56;;;;;;;9.43;4.90;;;24.00;89.50;;;;;;6275401;22;20008;-78
2022/08/27 00:44:22;;;;;;;7.78;4.60;;;24.00;89.50;;;;;;6275077;22;20014;-79
2022/08/27 00:46:51;;;;;;;8.18;5.10;;;24.00;89.50;;;;;;6248416;22;20433;-78
2022/08/27 00:49:39;;;;;;;7.13;4.78;;;24.00;89.60;;;;;;6275529;22;20004;-78
2022/08/27 00:52:12;;;;;;;7.13;4.72;;;24.00;89.60;;;;;;6248240;22;20091;-78
2022/08/27 00:54:38;;;;;;;7.78;5.05;;;24.00;89.60;;;;;;6247760;22;20000;-78
2022/08/27 00:57:04;;;;;;;7.45;4.53;;;24.00;89.50;;;;;;6247995;22;20004;-79
2022/08/27 00:59:31;;;;;;;6.93;4.55;;;23.90;89.40;;;;;;6275155;22;20000;-78
2022/08/27 01:04:47;;;;;;;8.00;4.78;;;24.00;89.40;;;;;;6274863;22;20054;-79
2022/08/27 01:07:13;;;;;;;7.63;4.40;;;24.00;89.30;;;;;;6248209;22;20095;-79
2022/08/27 01:09:41;;;;;;;7.32;4.95;;;24.10;89.40;;;;;;6275192;22;20382;-79
2022/08/27 01:12:08;;;;;;;7.53;4.97;;;24.00;89.30;;;;;;6247411;22;20004;-78
2022/08/27 01:14:34;;;;;;;7.57;4.97;;;24.00;89.30;;;;;;6247979;22;20007;-78
2022/08/27 01:17:01;;;;;;;7.78;5.00;;;24.00;89.40;;;;;;6274665;22;20000;-79
2022/08/27 01:19:31;;;;;;;7.45;4.70;;;24.00;89.50;;;;;;6274960;22;20002;-79
2022/08/27 01:22:05;;;;;;;8.02;5.03;;;24.00;89.60;;;;;;6275159;22;20028;-78
2022/08/27 01:24:47;;;;;;;7.82;4.75;;;24.00;89.60;;;;;;6274567;22;19999;-78
2022/08/27 01:27:18;;;;;;;7.43;4.90;;;24.00;89.60;;;;;;6248396;22;20054;-79
2022/08/27 01:29:44;;;;;;;7.95;5.00;;;23.90;89.60;;;;;;6277103;22;20077;-78
2022/08/27 01:32:14;;;;;;;7.68;4.53;;;24.00;89.60;;;;;;6249865;22;20441;-78
2022/08/27 01:34:40;;;;;;;7.20;4.75;;;24.00;89.60;;;;;;6276981;22;20003;-79
2022/08/27 01:37:06;;;;;;;7.18;4.55;;;23.90;89.60;;;;;;6249914;22;20043;-78
2022/08/27 01:39:38;;;;;;;7.13;4.43;;;23.90;89.60;;;;;;6249683;22;20004;-79
2022/08/27 01:42:12;;;;;;;7.53;4.80;;;23.90;89.60;;;;;;6277371;22;20004;-78
2022/08/27 01:45:00;;;;;;;6.93;4.40;;;24.00;89.60;;;;;;6249595;22;20001;-78
2022/08/27 01:47:27;;;;;;;6.35;4.47;;;24.00;89.50;;;;;;6276933;22;20007;-78
2022/08/27 01:49:52;;;;;;;6.90;4.40;;;24.00;89.40;;;;;;6249929;22;20411;-78
2022/08/27 01:52:20;;;;;;;6.70;4.30;;;24.00;89.40;;;;;;6276830;22;20031;-78
2022/08/27 01:54:47;;;;;;;6.75;4.35;;;24.00;89.40;;;;;;6249650;22;19999;-78
2022/08/27 01:57:13;;;;;;;6.25;4.25;;;24.00;89.40;;;;;;6249665;22;20027;-78
2022/08/27 01:59:40;;;;;;;7.55;4.78;;;24.00;89.50;;;;;;6249532;22;20000;-79
2022/08/27 02:02:07;;;;;;;7.15;4.50;;;24.00;89.60;;;;;;6277182;22;20086;-79
2022/08/27 02:04:33;;;;;;;8.93;5.03;;;23.90;89.60;;;;;;6249220;22;20011;-78
2022/08/27 02:06:58;;;;;;;6.57;4.53;;;23.90;89.60;;;;;;6276627;22;20057;-78
2022/08/27 02:09:25;;;;;;;6.78;4.60;;;23.90;89.70;;;;;;6249851;22;20011;-77
2022/08/27 02:11:51;;;;;;;6.68;4.43;;;23.90;89.70;;;;;;6275998;22;20007;-78
2022/08/27 02:14:17;;;;;;;7.15;4.40;;;23.90;89.70;;;;;;6249401;22;20008;-78
2022/08/27 02:16:42;;;;;;;6.53;3.85;;;23.90;89.70;;;;;;6249502;22;20035;-78
2022/08/27 02:19:08;;;;;;;6.55;4.28;;;23.90;89.70;;;;;;6276906;22;20019;-79
2022/08/27 02:21:34;;;;;;;6.43;4.32;;;23.80;89.70;;;;;;6276614;22;20083;-79
2022/08/27 02:23:59;;;;;;;6.60;4.25;;;23.90;89.70;;;;;;6249293;22;20412;-78
2022/08/27 02:26:26;;;;;;;6.85;4.38;;;23.90;89.90;;;;;;6249628;22;20031;-78
2022/08/27 02:28:52;;;;;;;6.35;4.10;;;23.90;89.60;;;;;;6249687;22;20003;-79
2022/08/27 02:31:18;;;;;;;6.75;4.30;;;23.90;89.50;;;;;;6276383;22;20677;-79
2022/08/27 02:33:43;;;;;;;7.18;4.35;;;23.90;89.40;;;;;;6249634;22;20081;-77
2022/08/27 02:36:09;;;;;;;6.70;3.92;;;23.90;89.40;;;;;;6249647;22;20010;-78
2022/08/27 02:38:35;;;;;;;7.03;4.28;;;23.90;89.50;;;;;;6249462;22;20023;-78
2022/08/27 02:41:00;;;;;;;7.95;4.28;;;23.90;89.50;;;;;;6249321;22;20543;-78
2022/08/27 02:43:26;;;;;;;6.65;4.13;;;23.90;89.50;;;;;;6249708;22;20385;-78
2022/08/27 02:45:52;;;;;;;5.82;4.00;;;23.90;89.60;;;;;;6273802;22;20007;-78
2022/08/27 02:48:17;;;;;;;7.18;4.30;;;23.90;89.70;;;;;;6248865;22;20007;-78
2022/08/27 02:50:44;;;;;;;6.20;4.25;;;23.90;89.70;;;;;;6248860;22;20007;-78
2022/08/27 02:53:09;;;;;;;7.05;4.35;;;23.90;89.70;;;;;;6276345;22;19996;-78
2022/08/27 02:55:36;;;;;;;7.03;4.20;;;23.80;89.70;;;;;;6276313;22;20003;-78
2022/08/27 02:58:02;;;;;;;6.35;4.50;;;23.80;89.70;;;;;;6249314;22;20000;-78
2022/08/27 03:00:28;;;;;;;6.78;4.45;;;23.80;89.80;;;;;;6276470;22;20029;-78
2022/08/27 03:02:54;;;;;;;6.47;4.15;;;23.80;89.80;;;;;;6249309;22;20003;-78
2022/08/27 03:05:21;;;;;;;6.13;4.00;;;23.80;89.80;;;;;;6275821;22;20029;-78
2022/08/27 03:07:48;;;;;;;6.28;3.92;;;23.80;89.80;;;;;;6248468;22;20011;-78
2022/08/27 03:10:15;;;;;;;5.72;3.85;;;23.80;89.70;;;;;;6248969;22;20000;-79
2022/08/27 03:12:41;;;;;;;6.60;3.90;;;23.90;89.70;;;;;;6248619;22;20506;-78
2022/08/27 03:15:09;;;;;;;5.82;3.67;;;23.90;89.60;;;;;;6248722;22;20004;-78
2022/08/27 03:20:20;;;;;;;5.65;3.70;;;23.90;89.50;;;;;;6276216;22;20082;-79
2022/08/27 03:22:45;;;;;;;6.43;4.05;;;23.90;89.60;;;;;;6249402;22;20027;-79
2022/08/27 03:25:11;;;;;;;6.63;4.63;;;23.90;89.60;;;;;;6248460;22;20007;-78
2022/08/27 03:27:37;;;;;;;6.20;4.07;;;23.90;89.60;;;;;;6248907;22;20030;-78
2022/08/27 03:30:11;;;;;;;6.28;4.07;;;23.90;89.70;;;;;;6248839;22;20000;-78
2022/08/27 03:32:37;;;;;;;6.47;4.15;;;23.80;89.80;;;;;;6276159;22;20452;-78
2022/08/27 03:35:03;;;;;;;6.97;4.15;;;23.80;89.80;;;;;;6275685;22;20000;-77
2022/08/27 03:37:29;;;;;;;6.00;3.80;;;23.80;89.80;;;;;;6275567;22;19996;-79
2022/08/27 03:39:54;;;;;;;6.65;4.00;;;23.80;89.80;;;;;;6248962;22;20000;-79
2022/08/27 03:42:21;;;;;;;7.07;4.00;;;23.80;89.90;;;;;;6275972;22;20000;-78
2022/08/27 03:44:46;;;;;;;6.38;4.00;;;23.80;89.90;;;;;;6248396;22;20015;-77
2022/08/27 03:47:12;;;;;;;5.38;3.60;;;23.80;90.20;;;;;;6275969;22;20003;-78
2022/08/27 03:49:38;;;;;;;8.27;4.18;;;23.80;89.90;;;;;;6275448;22;20011;-78
2022/08/27 03:52:04;;;;;;;6.10;4.00;;;23.80;89.80;;;;;;6248270;22;20007;-78
2022/08/27 03:54:31;;;;;;;5.63;3.72;;;23.80;89.80;;;;;;6275369;22;19996;-78
2022/08/27 03:56:57;;;;;;;6.32;3.72;;;23.80;89.80;;;;;;6248542;22;20007;-78
2022/08/27 03:59:22;;;;;;;6.28;3.92;;;23.80;89.70;;;;;;6248924;22;20000;-78
2022/08/27 04:01:47;;;;;;;4.97;3.28;;;23.80;89.60;;;;;;6249368;22;20530;-79
2022/08/27 04:04:13;;;;;;;6.47;3.97;;;23.90;89.60;;;;;;6250570;22;20005;-79
2022/08/27 04:06:39;;;;;;;7.05;3.80;;;23.80;89.50;;;;;;6250715;22;20000;-78
2022/08/27 04:09:04;;;;;;;5.88;3.90;;;23.80;89.70;;;;;;6277891;22;20014;-79
2022/08/27 04:11:33;;;;;;;6.32;4.00;;;23.80;89.60;;;;;;6277516;22;20241;-78
2022/08/27 04:13:59;;;;;;;6.63;3.95;;;23.80;89.70;;;;;;6250400;22;20011;-77
2022/08/27 04:16:25;;;;;;;6.07;3.78;;;23.80;89.80;;;;;;6277101;22;20314;-78
2022/08/27 04:18:52;;;;;;;5.20;3.30;;;23.80;89.80;;;;;;6249618;22;20011;-79
2022/08/27 04:21:17;;;;;;;6.50;3.28;;;23.80;89.80;;;;;;6249332;22;20441;-80
2022/08/27 04:23:43;;;;;;;5.30;3.55;;;23.80;89.90;;;;;;6249337;22;20008;-78
2022/08/27 04:26:10;;;;;;;6.25;3.90;;;23.70;89.90;;;;;;6249090;22;20344;-78
2022/08/27 04:28:36;;;;;;;5.63;3.47;;;23.80;90.00;;;;;;6249029;22;20010;-79
2022/08/27 04:31:02;;;;;;;5.60;3.40;;;23.70;90.00;;;;;;6248771;22;20091;-79
2022/08/27 04:33:30;;;;;;;5.47;3.50;;;23.80;90.00;;;;;;6248849;22;20007;-77
2022/08/27 04:35:57;;;;;;;4.72;3.25;;;23.80;89.90;;;;;;6248454;22;20074;-78
2022/08/27 04:38:23;;;;;;;6.03;3.55;;;23.80;89.80;;;;;;6248849;22;20086;-79
2022/08/27 04:43:32;;;;;;;5.45;3.38;;;23.80;89.70;;;;;;6282245;22;20060;-79
2022/08/27 04:45:58;;;;;;;5.60;3.45;;;23.80;89.70;;;;;;6278337;22;20020;-80
2022/08/27 04:48:24;;;;;;;5.28;3.22;;;23.80;90.00;;;;;;6280879;22;20731;-80
2022/08/27 04:50:50;;;;;;;5.85;3.40;;;23.80;89.70;;;;;;6251788;22;20039;-79
2022/08/27 04:53:16;;;;;;;5.38;3.22;;;23.80;89.70;;;;;;6253194;22;20035;-78
2022/08/27 04:55:49;;;;;;;5.53;3.60;;;23.80;89.80;;;;;;6280344;22;20004;-79
2022/08/27 04:58:15;;;;;;;6.05;3.55;;;23.80;89.90;;;;;;6253097;22;20004;-79
2022/08/27 05:00:49;;;;;;;5.85;3.47;;;23.80;89.90;;;;;;6277757;22;20352;-78
2022/08/27 05:03:16;;;;;;;5.15;3.35;;;23.80;89.90;;;;;;6280152;22;19999;-79
2022/08/27 05:05:43;;;;;;;5.82;3.55;;;23.70;89.90;;;;;;6252369;22;20026;-80
2022/08/27 05:08:11;;;;;;;4.93;2.97;;;23.70;89.90;;;;;;6252964;22;20452;-80
2022/08/27 05:10:43;;;;;;;5.30;3.40;;;23.70;90.00;;;;;;6252946;22;20007;-79
2022/08/27 05:13:10;;;;;;;4.80;3.22;;;23.70;90.00;;;;;;6252991;22;20007;-79
2022/08/27 05:15:36;;;;;;;5.72;3.58;;;23.70;90.00;;;;;;6250728;22;20330;-79
2022/08/27 05:18:02;;;;;;;5.43;3.28;;;23.70;90.00;;;;;;6252178;22;20451;-78
2022/08/27 05:20:29;;;;;;;5.15;3.03;;;23.70;89.90;;;;;;6252691;22;20004;-79
2022/08/27 05:22:56;;;;;;;5.20;3.03;;;23.70;89.90;;;;;;6280146;22;20021;-80
2022/08/27 05:25:22;;;;;;;6.25;3.17;;;23.70;89.80;;;;;;6252730;22;20007;-79
2022/08/27 05:27:48;;;;;;;5.22;3.30;;;23.70;89.70;;;;;;6252828;22;20031;-80
2022/08/27 05:30:14;;;;;;;4.55;2.90;;;23.80;89.70;;;;;;6253753;22;20007;-79
2022/08/27 05:32:39;;;;;;;5.13;3.10;;;23.80;89.70;;;;;;6277388;22;19999;-80
2022/08/27 05:35:06;;;;;;;5.57;3.25;;;23.80;89.60;;;;;;6279589;22;20000;-79
2022/08/27 05:37:32;;;;;;;5.13;3.20;;;23.80;89.70;;;;;;6280684;22;20019;-79
2022/08/27 05:39:59;;;;;;;4.95;3.00;;;23.70;89.80;;;;;;6254392;22;20000;-79
2022/08/27 05:42:25;;;;;;;5.35;3.30;;;23.70;89.80;;;;;;6277237;22;20004;-79
2022/08/27 05:44:51;;;;;;;4.72;3.00;;;23.70;89.80;;;;;;6253049;22;20004;-81
2022/08/27 05:47:16;;;;;;;5.63;3.13;;;23.70;89.90;;;;;;6279674;22;20023;-79
2022/08/27 05:49:42;;;;;;;4.50;2.85;;;23.60;89.90;;;;;;6253328;22;20019;-79
2022/08/27 05:52:12;;;;;;;5.28;2.85;;;23.70;90.00;;;;;;6253049;22;20038;-79
2022/08/27 05:54:38;;;;;;;6.13;3.05;;;23.70;89.90;;;;;;6252586;22;20031;-78
2022/08/27 05:57:04;;;;;;;5.53;3.08;;;23.70;89.80;;;;;;6251939;22;20035;-79
2022/08/27 06:02:14;;;;;;;5.00;2.67;;;23.70;89.70;;;;;;6275669;22;20010;-79
2022/08/27 06:04:39;;;;;;;4.57;2.90;;;23.70;89.70;;;;;;6250696;22;20028;-80
2022/08/27 06:07:08;;;;;;;5.55;3.00;;;23.70;89.60;;;;;;6251610;22;20029;-80
2022/08/27 06:09:33;;;;;;;5.32;2.85;;;23.70;89.60;;;;;;6276692;22;20000;-79
2022/08/27 06:11:59;;;;;;;4.10;2.60;;;23.60;89.50;;;;;;6249182;22;20026;-79
2022/08/27 06:14:25;;;;;;;6.72;2.80;;;23.70;89.40;;;;;;6250194;22;20000;-79
2022/08/27 06:16:51;;;;;;;5.97;2.78;;;23.70;89.30;;;;;;6252613;22;20003;-79
2022/08/27 06:19:17;;;;;;;4.78;2.70;;;23.70;89.30;;;;;;6252891;22;20007;-80
2022/08/27 06:21:42;;;;;;;4.97;2.65;;;23.70;89.40;;;;;;6252770;22;20011;-80
2022/08/27 06:24:11;;;;;;;4.53;2.67;;;23.80;89.40;;;;;;6279413;22;20008;-80
2022/08/27 06:26:38;;;;;;;5.00;2.85;;;23.70;89.50;;;;;;6278971;22;20004;-79
2022/08/27 06:29:06;;;;;;;5.30;2.90;;;23.70;89.60;;;;;;6252139;22;20322;-80
2022/08/27 06:31:34;;;;;;;5.88;3.20;;;23.70;89.60;;;;;;6251933;22;20073;-81
2022/08/27 06:34:02;;;;;;;5.03;2.67;;;23.70;89.60;;;;;;6253052;22;20493;-80
2022/08/27 06:36:29;;;;;;;5.68;2.75;;;23.60;89.50;;;;;;6252700;22;20093;-80
2022/08/27 06:38:55;;;;;;;5.80;2.90;;;23.60;89.50;;;;;;6249750;22;20428;-80
2022/08/27 06:41:25;;;;;;;5.05;2.50;;;23.70;89.60;;;;;;6251964;22;20333;-80
2022/08/27 06:43:51;;;;;;;5.22;2.50;;;23.70;89.60;;;;;;6278818;22;20000;-79
2022/08/27 06:46:20;;;;;;;5.75;2.40;;;23.70;89.30;;;;;;6250819;22;20004;-80
2022/08/27 06:48:47;;;;;;;4.35;2.55;;;23.60;89.00;;;;;;6251670;22;20000;-79
2022/08/27 06:51:16;;;;;;;5.53;2.50;;;23.70;88.90;;;;;;6250809;22;20007;-81
2022/08/27 06:53:43;;;;;;;4.85;2.55;;;23.70;88.80;;;;;;6251639;22;20003;-80
2022/08/27 06:56:10;;;;;;;4.00;2.20;;;23.70;88.80;;;;;;6251545;22;20492;-80
2022/08/27 06:58:36;;;;;;;6.10;2.50;;;23.70;88.80;;;;;;6251176;22;20501;-80
2022/08/27 07:01:21;;;;;;;4.72;2.55;;;23.70;88.70;;;;;;6251920;22;20043;-80
2022/08/27 07:03:46;;;;;;;4.57;2.58;;;23.70;88.70;;;;;;6252923;22;20011;-81
2022/08/27 07:06:14;;;;;;;4.05;2.70;;;23.70;88.90;;;;;;6253030;22;20087;-80
2022/08/27 07:08:40;;;;;;;4.63;2.38;;;23.70;88.90;;;;;;6251910;22;20087;-79
2022/08/27 07:11:10;;;;;;;4.30;2.30;;;23.70;88.80;;;;;;6277969;22;20004;-79
2022/08/27 07:13:36;;;;;;;4.70;2.40;;;23.70;88.90;;;;;;6248315;22;20000;-79
2022/08/27 07:16:07;;;;;;;5.07;2.20;;;23.70;88.90;;;;;;6252342;22;20037;-79
2022/08/27 07:18:33;;;;;;;3.67;2.20;;;23.70;89.00;;;;;;6279697;22;19996;-78
2022/08/27 07:20:59;;;;;;;5.53;2.50;;;23.60;88.90;;;;;;6278065;22;20033;-79
2022/08/27 07:23:25;;;;;;;4.45;2.25;;;23.60;88.90;;;;;;6249552;22;20432;-79
2022/08/27 07:25:51;;;;;;;4.22;2.17;;;23.60;89.00;;;;;;6275683;22;19999;-80
2022/08/27 07:28:17;;;;;;;4.38;2.53;;;23.60;89.00;;;;;;6276420;22;20003;-80
2022/08/27 07:30:43;;;;;;;3.92;2.22;;;23.60;89.00;;;;;;6249429;22;20008;-78
2022/08/27 07:33:09;;;;;;;4.15;2.38;;;23.60;89.00;;;;;;6277600;22;20507;-78
2022/08/27 07:35:35;;;;;;;4.45;2.20;;;23.60;88.90;;;;;;6276186;22;19992;-77
2022/08/27 07:38:00;;;;;;;5.35;2.10;;;23.60;88.90;;;;;;6276668;22;20007;-78
2022/08/27 07:40:26;;;;;;;3.70;2.10;;;23.70;88.90;;;;;;6275971;22;20054;-78
2022/08/27 07:45:44;;;;;;;4.90;2.33;;;23.70;88.70;;;;;;6275672;22;20015;-77
2022/08/27 07:48:10;;;;;;;3.92;2.15;;;23.70;89.20;;;;;;6248733;22;20008;-78
2022/08/27 07:50:35;;;;;;;3.33;2.17;;;23.70;88.90;;;;;;6275340;22;20345;-78
2022/08/27 07:53:01;;;;;;;4.88;2.50;;;23.60;88.90;;;;;;6248620;22;20520;-79
2022/08/27 07:55:26;;;;;;;4.25;2.35;;;23.60;88.90;;;;;;6249112;22;20027;-79
2022/08/27 07:57:53;;;;;;;5.07;2.40;;;23.60;89.00;;;;;;6276403;22;20067;-78
2022/08/27 08:00:22;;;;;;;4.72;2.03;;;23.70;89.10;;;;;;6250902;22;20024;-80
2022/08/27 08:02:48;;;;;;;5.15;2.22;;;23.60;89.00;;;;;;6247805;22;20000;-79
2022/08/27 08:05:15;;;;;;;4.43;2.30;;;23.60;89.00;;;;;;6251587;22;20086;-81
2022/08/27 08:07:41;;;;;;;4.97;2.17;;;23.60;89.00;;;;;;6250204;22;20017;-79
2022/08/27 08:10:09;;;;;;;3.88;2.05;;;23.60;89.10;;;;;;6248408;22;20023;-80
2022/08/27 08:12:38;;;;;;;5.22;2.20;;;23.60;89.00;;;;;;6248379;22;20016;-78
2022/08/27 08:15:08;;;;;;;3.97;2.03;;;23.60;89.00;;;;;;6248204;22;20090;-78
2022/08/27 08:17:34;;;;;;;4.05;2.20;;;23.60;89.00;;;;;;6248826;22;20010;-78
2022/08/27 08:20:01;;;;;;;4.63;2.20;;;23.60;89.00;;;;;;6249115;22;20000;-78
2022/08/27 08:22:26;;;;;;;3.83;1.98;;;23.60;88.90;;;;;;6249685;22;20000;-78
2022/08/27 08:24:53;;;;;;;3.40;1.70;;;23.60;88.90;;;;;;6277368;22;19996;-78
2022/08/27 08:27:19;;;;;;;3.17;1.70;;;23.60;88.80;;;;;;6249253;22;20035;-78
2022/08/27 08:29:48;;;;;;;3.80;1.95;;;23.60;88.70;;;;;;6280096;22;20006;-79
2022/08/27 08:32:14;;;;;;;3.78;2.00;;;23.60;88.70;;;;;;6253639;22;20004;-78
2022/08/27 08:34:43;;;;;;;3.88;2.00;;;23.60;88.80;;;;;;6280944;22;20071;-77
2022/08/27 08:37:09;;;;;;;5.82;2.20;;;23.60;88.90;;;;;;6277796;22;19995;-80
2022/08/27 08:39:36;;;;;;;4.82;1.90;;;23.60;88.70;;;;;;6255770;22;20000;-80
2022/08/27 08:42:05;;;;;;;6.13;2.05;;;23.60;88.60;;;;;;6281999;22;20007;-79
2022/08/27 08:44:40;;;;;;;7.53;2.20;;;23.50;88.30;;;;;;6253910;22;20000;-79
2022/08/27 08:47:18;;;;;;;6.55;2.00;;;23.60;88.40;;;;;;6276281;22;20003;-79
2022/08/27 08:49:54;;;;;;;4.47;1.77;;;23.60;88.40;;;;;;6249452;22;20004;-79
2022/08/27 08:52:40;;;;;;;5.43;1.92;;;23.50;88.40;;;;;;6275897;22;20000;-78
2022/08/27 08:55:30;;;;;;;4.68;2.20;;;23.50;88.40;;;;;;6248857;22;20021;-79
2022/08/27 08:58:08;;;;;;;;;;;23.50;88.40;;;;;;6277456;22;19999;-78
2022/08/27 09:00:35;;;;;;;9.50;2.58;;;23.50;88.20;;;;;;6248168;22;20374;-79
2022/08/27 09:03:01;;;;;;;10.60;2.60;;;23.50;88.50;;;;;;6276120;22;20072;-78
2022/08/27 09:05:27;;;;;;;9.43;2.38;;;23.60;88.10;;;;;;6248448;22;20023;-79
2022/08/27 09:08:19;;;;;;;11.50;2.30;;;23.60;87.70;;;;;;6248112;22;20008;-78
2022/08/27 09:11:03;;;;;;;9.45;1.98;;;23.60;87.50;;;;;;6248759;22;20099;-80
2022/08/27 09:13:37;;;;;;;11.68;2.10;;;23.60;87.30;;;;;;6248887;22;20003;-79
2022/08/27 09:16:04;;;;;;;6.40;1.70;;;23.70;87.40;;;;;;6248295;22;20074;-78
2022/08/27 09:18:33;;;;;;;10.00;2.33;;;23.70;87.50;;;;;;6247871;22;20375;-79
2022/08/27 09:21:16;;;;;;;10.10;2.25;;;23.70;87.60;;;;;;6247951;22;20133;-79
2022/08/27 09:24:00;;;;;;;5.97;2.05;;;23.70;87.70;;;;;;6247930;22;20000;-78
2022/08/27 09:26:28;;;;;;;6.60;1.95;;;23.80;87.90;;;;;;6248620;22;20035;-78
2022/08/27 09:29:16;;;;;;;7.97;2.33;;;23.90;87.50;;;;;;6248466;22;20034;-79
2022/08/27 09:31:44;;;;;;;6.60;1.90;;;24.00;87.20;;;;;;6248672;22;19999;-79
2022/08/27 09:34:12;;;;;;;6.60;2.00;;;24.10;86.80;;;;;;6248749;22;20515;-79
2022/08/27 09:36:59;;;;;;;6.75;1.73;;;24.20;86.60;;;;;;6275335;22;20316;-79
2022/08/27 09:39:31;;;;;;;9.05;2.10;;;24.30;86.20;;;;;;6247978;22;20421;-78
2022/08/27 09:41:57;;;;;;;6.82;1.80;;;24.40;86.00;;;;;;6248749;22;20437;-79
2022/08/27 09:44:23;;;;;;;11.02;2.10;;;24.50;85.80;;;;;;6276814;22;20053;-78
2022/08/27 09:47:02;;;;;;;6.20;1.77;;;24.60;85.50;;;;;;6249465;22;20004;-79
2022/08/27 09:49:28;;;;;;;7.38;1.80;;;24.60;85.30;;;;;;6276994;22;19995;-79
2022/08/27 09:51:55;;;;;;;5.20;1.65;;;24.70;85.20;;;;;;6251088;22;20005;-79
2022/08/27 09:54:36;;;;;;;5.32;1.42;;;24.70;84.80;;;;;;6277530;22;20069;-79
2022/08/27 09:57:02;;;;;;;9.10;1.77;;;24.70;85.10;;;;;;6249597;22;20003;-78
2022/08/27 09:59:51;;;;;;;6.72;1.70;;;24.60;85.50;;;;;;6251062;22;20022;-79
2022/08/27 10:02:24;;;;;;;10.15;1.88;;;24.50;86.10;;;;;;6249836;22;20000;-79
2022/08/27 10:04:52;;;;;;;11.40;2.20;;;24.40;86.90;;;;;;6249855;22;20008;-79
2022/08/27 10:07:30;;;;;;;5.57;2.05;;;24.30;87.10;;;;;;6249749;22;20003;-79
2022/08/27 10:10:31;;;;;;;6.75;1.80;;;24.30;87.50;;;;;;6251405;22;20310;-79
2022/08/27 10:13:03;;;;;;;5.65;1.40;;;24.30;87.80;;;;;;6266569;22;20006;-79
2022/08/27 10:15:36;;;;;;;7.68;1.67;;;24.20;88.10;;;;;;6277630;22;20003;-78
2022/08/27 10:18:10;;;;;;;5.90;2.03;;;24.20;88.30;;;;;;6278409;22;20079;-78
2022/08/27 10:21:02;;;;;;;6.32;1.92;;;24.10;88.50;;;;;;6250738;22;20004;-78
2022/08/27 10:23:45;;;;;;;6.43;1.58;;;24.10;88.50;;;;;;6278187;22;20375;-78
2022/08/27 10:26:35;;;;;;;7.65;1.80;;;24.10;88.80;;;;;;6276339;22;19996;-79
2022/08/27 10:29:34;;;;;;;6.95;1.92;;;24.10;88.80;;;;;;6277052;22;20002;-79
2022/08/27 10:32:30;;;;;;;;;;;24.10;88.80;;;;;;6278065;22;20025;-79
2022/08/27 10:35:12;;;;;;;4.65;1.70;;;24.10;88.90;;;;;;6252498;22;19902;-80
2022/08/27 10:38:09;;;;;;;5.07;1.70;;;24.10;89.00;;;;;;6255582;22;19988;-81
2022/08/27 10:40:51;;;;;;;4.03;1.65;;;24.10;88.90;;;;;;6282231;22;19995;-78
2022/08/27 10:43:40;;;;;;;4.15;1.48;;;24.10;88.80;;;;;;6255410;22;20092;-79
2022/08/27 10:46:46;;;;;;;6.47;1.80;;;24.10;88.80;;;;;;6255207;22;19995;-79
2022/08/27 10:49:34;;;;;;;4.65;1.40;;;24.10;88.90;;;;;;6282586;22;20042;-80
2022/08/27 10:52:40;;;;;;;3.67;1.70;;;24.00;89.00;;;;;;6253889;22;19999;-79
2022/08/27 10:55:11;;;;;;;4.63;1.40;;;24.00;89.10;;;;;;6281937;22;20051;-79
2022/08/27 10:58:01;;;;;;;5.50;1.95;;;24.00;89.20;;;;;;6255436;22;20007;-78
2022/08/27 11:00:42;;;;;;;13.38;2.30;;;24.00;89.30;;;;;;6250073;22;20348;-80
2022/08/27 11:03:18;;;;;;;11.63;1.92;;;24.00;88.80;;;;;;6249751;22;20003;-78
2022/08/27 11:05:46;;;;;;;14.15;2.00;;;24.00;88.30;;;;;;6247937;22;20047;-75
2022/08/27 11:08:36;;;;;;;15.65;2.50;;;24.00;88.20;;;;;;6276925;22;20012;-78
2022/08/27 11:11:12;;;;;;;11.40;2.22;;;24.00;88.20;;;;;;6250314;22;20004;-78
2022/08/27 11:13:49;;;;;;;10.60;1.70;;;24.00;88.10;;;;;;6250179;22;20086;-79
2022/08/27 11:16:21;;;;;;;9.95;1.80;;;24.00;88.10;;;;;;6276852;22;20045;-78
2022/08/27 11:18:50;;;;;;;8.75;1.90;;;24.00;87.90;;;;;;6249399;22;19996;-78
2022/08/27 11:21:25;;;;;;;8.40;1.67;;;24.10;87.90;;;;;;6247552;22;20003;-78
2022/08/27 11:23:59;;;;;;;7.90;1.70;;;24.10;87.80;;;;;;6276360;22;20437;-78
2022/08/27 11:26:24;;;;;;;8.40;2.13;;;24.10;87.90;;;;;;6250009;22;20010;-79
2022/08/27 11:28:55;;;;;;;9.18;2.00;;;24.00;87.80;;;;;;6278359;22;20003;-79
2022/08/27 11:31:39;;;;;;;7.47;1.90;;;24.00;87.90;;;;;;6278327;22;20384;-79
2022/08/27 11:34:33;;;;;;;6.25;1.60;;;24.00;88.00;;;;;;6250515;22;20528;-79
2022/08/27 11:37:15;;;;;;;8.73;2.00;;;24.00;87.90;;;;;;6249977;22;20050;-80
2022/08/27 11:40:07;;;;;;;8.00;1.77;;;24.00;88.00;;;;;;6250252;22;20026;-79
2022/08/27 11:42:42;;;;;;;8.00;1.92;;;24.00;88.10;;;;;;6250571;22;20035;-79
2022/08/27 11:45:21;;;;;;;8.30;1.88;;;24.00;88.10;;;;;;6250989;22;20392;-79
2022/08/27 11:47:53;;;;;;;6.25;1.60;;;23.90;88.20;;;;;;6249953;22;20437;-79
2022/08/27 11:50:20;;;;;;;7.45;1.40;;;23.90;88.20;;;;;;6250170;22;20448;-79
2022/08/27 11:52:59;;;;;;;7.57;1.80;;;23.90;88.30;;;;;;6277153;22;19999;-79
2022/08/27 11:55:29;;;;;;;6.03;1.63;;;23.90;88.30;;;;;;6249772;22;20086;-79
2022/08/27 11:58:16;;;;;;;5.90;1.63;;;23.90;88.30;;;;;;6249904;22;20034;-78
2022/08/27 12:00:43;;;;;;;5.05;1.50;;;24.00;88.30;;;;;;6250123;22;20003;-79
2022/08/27 12:03:17;;;;;;;6.45;1.73;;;24.00;88.20;;;;;;6249839;22;20089;-79
2022/08/27 12:06:04;;;;;;;5.55;1.73;;;24.00;88.10;;;;;;6276285;22;20000;-79
2022/08/27 12:08:33;;;;;;;4.38;1.52;;;24.00;88.10;;;;;;6276005;22;20087;-78
2022/08/27 12:11:27;;;;;;;5.60;1.80;;;24.00;88.20;;;;;;6275463;22;20083;-76
2022/08/27 12:14:19;;;;;;;3.47;1.17;;;23.90;88.20;;;;;;6247928;22;20376;-78
2022/08/27 12:17:00;;;;;;;6.40;1.52;;;23.90;88.20;;;;;;6274661;22;20075;-75
2022/08/27 12:19:41;;;;;;;7.10;1.80;;;23.90;88.40;;;;;;6279914;22;20000;-81
2022/08/27 12:22:30;;;;;;;4.10;1.33;;;23.90;88.40;;;;;;6249995;22;20003;-82
2022/08/27 12:24:57;;;;;;;6.07;1.77;;;23.80;88.50;;;;;;6248719;22;20003;-78
2022/08/27 12:27:33;;;;;;;5.00;1.65;;;23.80;88.50;;;;;;6248312;22;20428;-78
2022/08/27 12:30:03;;;;;;;5.50;1.70;;;23.80;88.60;;;;;;6248558;22;20007;-79
2022/08/27 12:32:34;;;;;;;5.72;1.40;;;23.80;88.50;;;;;;6276149;22;20379;-80
2022/08/27 12:35:02;;;;;;;;;;;23.80;88.60;;;;;;6276481;22;20460;-79
2022/08/27 12:37:36;;;;;;;7.15;1.70;;;23.80;88.60;;;;;;6275870;22;19899;-79
2022/08/27 12:40:40;;;;;;;5.85;1.70;;;23.80;88.60;;;;;;6249215;22;20488;-79
2022/08/27 12:43:23;;;;;;;4.15;1.40;;;23.80;88.40;;;;;;6239751;22;20011;-79
2022/08/27 12:46:06;;;;;;;6.38;1.65;;;23.80;88.30;;;;;;6275510;22;20000;-78
2022/08/27 12:48:43;;;;;;;7.47;1.70;;;23.80;88.30;;;;;;6248658;22;20000;-79
2022/08/27 12:51:23;;;;;;;7.63;1.75;;;23.80;88.20;;;;;;6249265;22;20004;-80
2022/08/27 12:54:29;;;;;;;7.25;1.65;;;23.80;88.20;;;;;;6285957;22;20016;-81
2022/08/27 12:57:23;;;;;;;9.55;1.95;;;23.80;88.40;;;;;;6259015;22;20003;-80
2022/08/27 13:00:06;;;;;;;9.57;1.73;;;23.80;88.00;;;;;;6285698;22;19996;-80
2022/08/27 13:02:53;;;;;;;9.80;1.83;;;23.80;87.90;;;;;;6257953;22;20022;-80
2022/08/27 13:05:20;;;;;;;8.70;2.33;;;23.80;88.00;;;;;;6257795;22;20063;-80
2022/08/27 13:07:48;;;;;;;7.63;1.60;;;23.80;88.20;;;;;;6284124;22;20008;-80
2022/08/27 13:10:17;;;;;;;9.80;1.95;;;23.80;88.40;;;;;;6283929;22;20444;-80
2022/08/27 13:12:46;;;;;;;8.20;1.60;;;23.80;88.70;;;;;;6283268;22;20079;-79
2022/08/27 13:15:14;;;;;;;7.95;1.83;;;23.90;89.20;;;;;;6254965;22;20222;-79
2022/08/27 13:17:43;;;;;;;8.55;2.03;;;24.00;90.00;;;;;;6254861;22;20433;-79
2022/08/27 13:20:36;;;;;;;7.28;1.88;;;24.10;90.40;;;;;;6255421;22;20348;-79